createdAt,value
2018-07-27T00:00:58.416Z,5.50
2018-07-27T00:03:26.732Z,4.00
2018-07-27T00:05:54.365Z,4.17
2018-07-27T00:08:22.056Z,4.77
2018-07-27T00:10:51.728Z,6.27
2018-07-27T00:13:19.445Z,4.00
2018-07-27T00:15:48.507Z,4.30
2018-07-27T00:18:16.742Z,5.77
2018-07-27T00:20:45.548Z,5.60
2018-07-27T00:23:14.169Z,4.10
2018-07-27T00:25:41.821Z,4.10
2018-07-27T00:28:10.336Z,4.47
2018-07-27T00:30:37.947Z,4.83
2018-07-27T00:33:06.398Z,3.83
2018-07-27T00:35:35.230Z,5.47
2018-07-27T00:38:02.956Z,4.10
2018-07-27T00:40:30.583Z,4.97
2018-07-27T00:43:00.201Z,6.47
2018-07-27T00:45:27.845Z,3.80
2018-07-27T00:47:55.513Z,4.97
2018-07-27T00:50:24.797Z,5.10
2018-07-27T00:52:52.430Z,5.37
2018-07-27T00:55:21.007Z,4.67
2018-07-27T00:57:49.614Z,4.30
2018-07-27T01:00:17.953Z,5.23
2018-07-27T01:02:45.593Z,5.10
2018-07-27T01:05:14.224Z,5.50
2018-07-27T01:07:43.242Z,4.50
2018-07-27T01:10:11.764Z,4.77
2018-07-27T01:12:40.335Z,4.53
2018-07-27T01:15:08.597Z,5.03
2018-07-27T01:17:36.948Z,4.97
2018-07-27T01:20:05.857Z,4.97
2018-07-27T01:22:34.545Z,5.33
2018-07-27T01:25:02.183Z,6.53
2018-07-27T01:27:29.799Z,4.67
2018-07-27T01:30:04.861Z,5.03
2018-07-27T01:32:32.476Z,4.90
2018-07-27T01:35:01.449Z,6.87
2018-07-27T01:37:30.491Z,4.30
2018-07-27T01:39:58.135Z,7.37
2018-07-27T01:42:25.785Z,4.83
2018-07-27T01:44:53.456Z,5.37
2018-07-27T01:47:21.084Z,5.10
2018-07-27T01:49:49.307Z,6.90
2018-07-27T01:52:16.925Z,4.40
2018-07-27T01:54:44.901Z,4.53
2018-07-27T01:57:12.514Z,5.70
2018-07-27T01:59:40.201Z,4.80
2018-07-27T02:02:07.946Z,4.10
2018-07-27T02:04:36.304Z,4.70
2018-07-27T02:07:04.595Z,6.70
2018-07-27T02:09:33.224Z,5.80
2018-07-27T02:12:00.852Z,4.10
2018-07-27T02:14:30.230Z,4.30
2018-07-27T02:16:57.882Z,4.77
2018-07-27T02:19:26.043Z,8.47
2018-07-27T02:21:53.784Z,5.73
2018-07-27T02:24:22.086Z,7.43
2018-07-27T02:26:50.060Z,8.50
2018-07-27T02:29:17.695Z,5.03
2018-07-27T02:31:46.175Z,6.23
2018-07-27T02:34:14.774Z,6.10
2018-07-27T02:36:42.427Z,8.03
2018-07-27T02:39:10.873Z,4.70
2018-07-27T02:41:39.437Z,4.47
2018-07-27T02:44:07.648Z,5.67
2018-07-27T02:46:35.288Z,4.97
2018-07-27T02:49:03.015Z,5.20
2018-07-27T02:51:31.502Z,6.00
2018-07-27T02:53:59.120Z,4.57
2018-07-27T02:56:27.440Z,8.17
2018-07-27T02:58:57.212Z,5.20
2018-07-27T03:01:24.848Z,5.13
2018-07-27T03:03:52.547Z,4.80
2018-07-27T03:06:26.707Z,4.50
2018-07-27T03:08:54.889Z,6.53
2018-07-27T03:11:23.427Z,6.43
2018-07-27T03:13:51.661Z,6.10
2018-07-27T03:16:20.674Z,5.40
2018-07-27T03:18:51.218Z,7.03
2018-07-27T03:21:19.537Z,8.73
2018-07-27T03:23:49.161Z,7.27
2018-07-27T03:26:18.314Z,6.13
2018-07-27T03:28:46.889Z,8.67
2018-07-27T03:31:16.420Z,6.50
2018-07-27T03:33:45.161Z,5.73
2018-07-27T03:36:13.077Z,5.43
2018-07-27T03:38:42.055Z,6.13
2018-07-27T03:41:12.610Z,5.40
2018-07-27T03:43:42.195Z,6.23
2018-07-27T03:46:10.093Z,6.67
2018-07-27T03:48:38.016Z,10.33
2018-07-27T03:51:05.959Z,8.30
2018-07-27T03:53:33.842Z,10.10
2018-07-27T03:56:01.774Z,5.67
2018-07-27T03:58:30.602Z,5.73
2018-07-27T04:00:58.550Z,5.37
2018-07-27T04:03:26.546Z,7.53
2018-07-27T04:05:54.490Z,7.70
2018-07-27T04:08:22.392Z,6.67
2018-07-27T04:10:50.297Z,6.13
2018-07-27T04:13:18.292Z,8.53
2018-07-27T04:15:47.073Z,9.00
2018-07-27T04:18:14.942Z,7.37
2018-07-27T04:20:42.893Z,13.57
2018-07-27T04:23:10.798Z,7.70
2018-07-27T04:25:38.677Z,7.30
2018-07-27T04:28:06.587Z,7.40
2018-07-27T04:30:35.216Z,9.77
2018-07-27T04:33:03.764Z,6.57
2018-07-27T04:35:32.359Z,8.57
2018-07-27T04:38:00.233Z,8.83
2018-07-27T04:40:28.735Z,7.33
2018-07-27T04:42:56.753Z,7.93
2018-07-27T04:45:25.499Z,9.20
2018-07-27T04:47:53.542Z,6.73
2018-07-27T04:50:23.309Z,7.23
2018-07-27T04:52:52.254Z,9.13
2018-07-27T04:55:20.160Z,10.20
2018-07-27T04:57:48.960Z,6.13
2018-07-27T05:00:17.913Z,9.30
2018-07-27T05:02:45.848Z,10.30
2018-07-27T05:05:13.841Z,8.53
2018-07-27T05:07:41.779Z,8.53
2018-07-27T05:10:17.365Z,8.13
2018-07-27T05:12:45.303Z,9.53
2018-07-27T05:15:13.293Z,10.93
2018-07-27T05:17:42.625Z,6.80
2018-07-27T05:20:10.607Z,8.60
2018-07-27T05:22:38.549Z,6.27
2018-07-27T05:25:08.147Z,7.50
2018-07-27T05:27:36.062Z,7.33
2018-07-27T05:30:05.127Z,9.37
2018-07-27T05:32:35.845Z,7.77
2018-07-27T05:35:03.818Z,8.83
2018-07-27T05:37:31.758Z,10.23
2018-07-27T05:39:59.696Z,9.83
2018-07-27T05:42:27.657Z,7.27
2018-07-27T05:44:56.853Z,9.70
2018-07-27T05:47:25.740Z,8.50
2018-07-27T05:49:54.707Z,7.87
2018-07-27T05:52:22.699Z,6.90
2018-07-27T05:54:51.351Z,11.73
2018-07-27T05:57:19.268Z,6.90
2018-07-27T05:59:47.263Z,10.70
2018-07-27T06:02:16.054Z,9.57
2018-07-27T06:04:44.058Z,15.10
2018-07-27T06:07:12.186Z,10.77
2018-07-27T06:09:40.124Z,11.17
2018-07-27T06:12:09.062Z,8.83
2018-07-27T06:14:38.305Z,9.13
2018-07-27T06:17:06.493Z,10.40
2018-07-27T06:19:37.469Z,11.23
2018-07-27T06:22:07.467Z,8.33
2018-07-27T06:24:51.690Z,9.70
2018-07-27T06:27:19.913Z,8.13
2018-07-27T06:29:48.883Z,12.13
2018-07-27T06:32:19.381Z,10.73
2018-07-27T06:34:47.236Z,9.70
2018-07-27T06:37:17.182Z,9.70
2018-07-27T06:39:45.850Z,9.87
2018-07-27T06:42:19.330Z,9.80
2018-07-27T06:44:47.259Z,13.23
2018-07-27T06:47:15.156Z,7.93
2018-07-27T06:49:44.630Z,12.60
2018-07-27T06:52:12.865Z,9.00
2018-07-27T06:54:40.750Z,10.13
2018-07-27T06:57:08.670Z,10.83
2018-07-27T06:59:36.609Z,7.90
2018-07-27T07:02:04.574Z,9.63
2018-07-27T07:04:33.260Z,10.43
2018-07-27T07:07:01.284Z,11.50
2018-07-27T07:09:29.110Z,7.75
2018-07-27T07:11:57.053Z,7.87
2018-07-27T07:14:25.023Z,10.10
2018-07-27T07:16:52.868Z,9.05
2018-07-27T07:19:20.724Z,10.43
2018-07-27T07:21:48.735Z,8.00
2018-07-27T07:24:16.683Z,7.92
2018-07-27T07:26:44.615Z,9.38
2018-07-27T07:29:12.522Z,7.47
2018-07-27T07:31:40.480Z,11.15
2018-07-27T07:34:08.458Z,7.05
2018-07-27T07:36:36.458Z,9.25
2018-07-27T07:39:07.512Z,7.28
2018-07-27T07:41:35.437Z,8.78
2018-07-27T07:44:03.346Z,8.58
2018-07-27T07:46:31.157Z,6.40
2018-07-27T07:49:05.121Z,9.23
2018-07-27T07:51:33.809Z,7.33
2018-07-27T07:54:01.522Z,12.23
2018-07-27T07:56:29.156Z,6.28
2018-07-27T07:58:56.799Z,8.63
2018-07-27T08:01:24.461Z,7.10
2018-07-27T08:03:52.092Z,6.28
2018-07-27T08:06:19.703Z,6.95
2018-07-27T08:08:47.314Z,7.58
2018-07-27T08:11:14.966Z,6.62
2018-07-27T08:13:42.614Z,6.90
2018-07-27T08:16:10.247Z,6.53
2018-07-27T08:18:37.881Z,6.83
2018-07-27T08:21:05.766Z,6.97
2018-07-27T08:23:33.515Z,6.87
2018-07-27T08:26:35.347Z,7.70
2018-07-27T08:29:03.062Z,6.78
2018-07-27T08:31:30.848Z,7.10
2018-07-27T08:33:58.550Z,8.13
2018-07-27T08:36:26.293Z,7.90
2018-07-27T08:38:54.202Z,6.92
2018-07-27T08:41:21.851Z,7.75
2018-07-27T08:43:49.521Z,7.58
2018-07-27T08:46:17.168Z,8.70
2018-07-27T08:48:44.944Z,8.13
2018-07-27T08:51:12.591Z,7.42
2018-07-27T08:53:40.381Z,7.45
2018-07-27T08:56:08.044Z,7.72
2018-07-27T08:58:36.633Z,8.48
2018-07-27T09:01:04.293Z,8.78
2018-07-27T09:03:31.913Z,8.73
2018-07-27T09:05:59.626Z,8.73
2018-07-27T09:08:27.363Z,7.85
2018-07-27T09:10:55.037Z,8.25
2018-07-27T09:13:22.797Z,8.63
2018-07-27T09:15:50.481Z,8.73
2018-07-27T09:18:18.222Z,8.23
2018-07-27T09:20:45.909Z,8.83
2018-07-27T09:23:13.516Z,8.50
2018-07-27T09:25:41.837Z,9.63
2018-07-27T09:28:09.500Z,9.70
2018-07-27T09:30:37.149Z,8.90
2018-07-27T09:33:04.937Z,8.70
2018-07-27T09:35:32.566Z,8.88
2018-07-27T09:38:00.303Z,8.95
2018-07-27T09:40:27.994Z,8.55
2018-07-27T09:42:55.598Z,8.98
2018-07-27T09:45:23.342Z,9.78
2018-07-27T09:47:51.023Z,9.38
2018-07-27T09:50:18.664Z,9.63
2018-07-27T09:52:46.406Z,7.92
2018-07-27T09:55:14.023Z,9.50
2018-07-27T09:57:41.651Z,9.08
2018-07-27T10:00:09.172Z,9.33
2018-07-27T10:02:36.809Z,8.75
2018-07-27T10:05:04.623Z,8.63
2018-07-27T10:07:32.317Z,8.38
2018-07-27T10:09:59.967Z,8.30
2018-07-27T10:12:27.574Z,8.55
2018-07-27T10:14:55.272Z,8.88
2018-07-27T10:17:22.813Z,8.30
2018-07-27T10:19:50.466Z,9.08
2018-07-27T10:22:18.090Z,8.73
2018-07-27T10:24:45.829Z,9.33
2018-07-27T10:27:13.464Z,8.40
2018-07-27T10:29:41.124Z,9.08
2018-07-27T10:32:08.845Z,8.10
2018-07-27T10:34:36.506Z,8.38
2018-07-27T10:37:04.264Z,8.55
2018-07-27T10:39:31.910Z,8.10
2018-07-27T10:41:59.559Z,8.63
2018-07-27T10:44:27.228Z,8.23
2018-07-27T10:46:54.912Z,9.08
2018-07-27T10:49:22.560Z,9.08
2018-07-27T10:51:50.172Z,7.30
2018-07-27T10:54:17.827Z,8.23
2018-07-27T10:56:45.480Z,8.00
2018-07-27T10:59:13.103Z,9.18
2018-07-27T11:01:40.764Z,7.62
2018-07-27T11:04:08.417Z,7.20
2018-07-27T11:06:36.089Z,7.08
2018-07-27T11:09:05.783Z,6.62
2018-07-27T11:11:33.471Z,7.40
2018-07-27T11:14:01.092Z,7.25
2018-07-27T11:16:28.880Z,6.75
2018-07-27T11:18:56.466Z,7.08
2018-07-27T11:21:24.141Z,7.83
2018-07-27T11:23:51.820Z,7.00
2018-07-27T11:26:19.482Z,7.80
2018-07-27T11:28:47.348Z,6.87
2018-07-27T11:31:15.063Z,7.87
2018-07-27T11:33:42.731Z,7.50
2018-07-27T11:36:10.381Z,7.40
2018-07-27T11:38:38.005Z,9.25
2018-07-27T11:41:05.742Z,7.92
2018-07-27T11:43:33.461Z,7.35
2018-07-27T11:46:01.387Z,6.78
2018-07-27T11:48:29.706Z,7.03
2018-07-27T11:50:57.872Z,6.85
2018-07-27T11:53:25.784Z,6.72
2018-07-27T11:55:53.789Z,6.60
2018-07-27T11:58:21.810Z,6.50
2018-07-27T12:00:49.646Z,5.85
2018-07-27T12:03:17.632Z,6.67
2018-07-27T12:05:45.533Z,6.00
2018-07-27T12:08:13.547Z,6.50
2018-07-27T12:10:41.497Z,5.47
2018-07-27T12:13:09.363Z,6.17
2018-07-27T12:15:37.333Z,5.83
2018-07-27T12:18:05.263Z,6.47
2018-07-27T12:20:33.327Z,6.03
2018-07-27T12:23:01.117Z,5.80
2018-07-27T12:25:29.045Z,7.35
2018-07-27T12:27:56.710Z,6.05
2018-07-27T12:30:24.463Z,5.60
2018-07-27T12:32:52.182Z,6.95
2018-07-27T12:35:19.830Z,6.40
2018-07-27T12:37:47.575Z,5.33
2018-07-27T12:40:15.596Z,5.67
2018-07-27T12:42:43.275Z,5.87
2018-07-27T12:47:45.211Z,5.83
2018-07-27T12:50:12.888Z,6.92
2018-07-27T12:52:40.653Z,6.08
2018-07-27T12:55:08.340Z,6.05
2018-07-27T12:57:36.023Z,6.25
2018-07-27T13:00:04.728Z,7.55
2018-07-27T13:02:32.412Z,6.20
2018-07-27T13:05:00.049Z,5.72
2018-07-27T13:07:27.709Z,6.05
2018-07-27T13:10:01.003Z,5.78
2018-07-27T13:12:28.676Z,5.60
2018-07-27T13:17:23.901Z,6.45
2018-07-27T13:19:51.624Z,5.50
2018-07-27T13:22:19.628Z,6.22
2018-07-27T13:25:02.552Z,6.30
2018-07-27T13:27:15.281Z,5.65
2018-07-27T13:29:42.936Z,6.28
2018-07-27T13:32:10.592Z,6.40
2018-07-27T13:34:41.416Z,6.62
2018-07-27T13:37:09.225Z,5.08
2018-07-27T13:39:37.544Z,5.83
2018-07-27T13:42:06.218Z,5.10
2018-07-27T13:44:35.041Z,6.08
2018-07-27T13:47:03.445Z,6.22
2018-07-27T13:49:31.132Z,5.85
2018-07-27T13:51:59.138Z,5.58
2018-07-27T13:54:27.934Z,5.58
2018-07-27T13:56:55.647Z,6.70
2018-07-27T13:59:23.269Z,6.28
2018-07-27T14:01:50.984Z,5.00
2018-07-27T14:04:18.641Z,5.42
2018-07-27T14:06:48.054Z,5.67
2018-07-27T14:09:16.365Z,6.15
2018-07-27T14:11:44.088Z,5.87
2018-07-27T14:14:12.095Z,5.72
2018-07-27T14:16:40.285Z,5.65
2018-07-27T14:19:07.958Z,5.08
2018-07-27T14:21:35.799Z,5.40
2018-07-27T14:24:03.509Z,5.60
2018-07-27T14:26:31.210Z,4.95
2018-07-27T14:28:58.943Z,6.00
2018-07-27T14:31:26.624Z,5.97
2018-07-27T14:33:54.370Z,5.92
2018-07-27T14:36:22.458Z,5.22
2018-07-27T14:38:50.660Z,7.78
2018-07-27T14:41:19.004Z,6.53
2018-07-27T14:43:46.812Z,6.70
2018-07-27T14:46:14.566Z,5.25
2018-07-27T14:48:42.211Z,5.97
2018-07-27T14:51:09.957Z,5.95
2018-07-27T14:53:37.673Z,5.90
2018-07-27T14:56:05.461Z,5.62
2018-07-27T14:58:33.104Z,5.67
2018-07-27T15:01:01.028Z,5.95
2018-07-27T15:03:28.606Z,5.72
2018-07-27T15:05:56.825Z,5.72
2018-07-27T15:08:24.557Z,5.70
2018-07-27T15:10:52.340Z,5.80
2018-07-27T15:13:19.979Z,6.00
2018-07-27T15:15:47.800Z,7.95
2018-07-27T15:18:15.481Z,6.05
2018-07-27T15:20:43.154Z,6.30
2018-07-27T15:23:10.835Z,5.87
2018-07-27T15:25:38.491Z,5.33
2018-07-27T15:28:06.148Z,6.05
2018-07-27T15:30:33.752Z,6.85
2018-07-27T15:33:01.396Z,7.28
2018-07-27T15:35:29.181Z,5.85
2018-07-27T15:37:56.825Z,8.43
2018-07-27T15:40:24.468Z,6.20
2018-07-27T15:42:52.156Z,6.72
2018-07-27T15:45:19.804Z,5.67
2018-07-27T15:47:47.610Z,6.17
2018-07-27T15:50:15.216Z,5.95
2018-07-27T15:52:42.932Z,5.45
2018-07-27T15:55:10.627Z,5.78
2018-07-27T15:57:38.345Z,5.92
2018-07-27T16:00:06.988Z,5.28
2018-07-27T16:02:34.698Z,6.83
2018-07-27T16:05:02.453Z,7.17
2018-07-27T16:07:30.207Z,5.37
2018-07-27T16:09:57.835Z,6.25
2018-07-27T16:12:25.493Z,5.55
2018-07-27T16:14:53.115Z,5.45
2018-07-27T16:17:20.774Z,5.62
2018-07-27T16:19:48.420Z,7.20
2018-07-27T16:22:16.144Z,6.58
2018-07-27T16:24:43.819Z,5.83
2018-07-27T16:27:11.540Z,6.30
2018-07-27T16:29:39.193Z,5.28
2018-07-27T16:32:07.374Z,5.70
2018-07-27T16:34:34.836Z,5.80
2018-07-27T16:37:02.530Z,5.53
2018-07-27T16:39:30.276Z,5.58
2018-07-27T16:41:58.041Z,5.75
2018-07-27T16:44:25.836Z,5.22
2018-07-27T16:46:53.474Z,5.80
2018-07-27T16:49:21.207Z,5.72
2018-07-27T16:51:48.832Z,8.70
2018-07-27T16:54:16.442Z,5.33
2018-07-27T16:56:44.112Z,7.65
2018-07-27T16:59:11.760Z,6.22
2018-07-27T17:01:39.617Z,5.95
2018-07-27T17:04:07.325Z,5.25
2018-07-27T17:06:35.093Z,6.03
2018-07-27T17:09:03.862Z,7.35
2018-07-27T17:11:31.503Z,5.03
2018-07-27T17:13:59.199Z,5.22
2018-07-27T17:16:26.929Z,6.47
2018-07-27T17:18:54.549Z,6.22
2018-07-27T17:21:22.095Z,5.47
2018-07-27T17:23:49.732Z,7.37
2018-07-27T17:26:17.437Z,5.60
2018-07-27T17:28:45.090Z,6.05
2018-07-27T17:31:12.894Z,6.10
2018-07-27T17:33:40.549Z,5.75
2018-07-27T17:36:08.177Z,5.05
2018-07-27T17:38:35.880Z,6.50
2018-07-27T17:41:03.553Z,5.78
2018-07-27T17:43:31.231Z,6.08
2018-07-27T17:45:58.910Z,8.05
2018-07-27T17:48:26.590Z,5.45
2018-07-27T17:50:54.223Z,7.58
2018-07-27T17:53:21.918Z,5.72
2018-07-27T17:55:49.554Z,7.37
2018-07-27T17:58:17.176Z,6.42
2018-07-27T18:00:44.824Z,6.50
2018-07-27T18:03:12.463Z,5.87
2018-07-27T18:05:40.418Z,6.70
2018-07-27T18:08:08.961Z,6.25
2018-07-27T18:10:36.634Z,6.85
2018-07-27T18:13:04.417Z,5.30
2018-07-27T18:15:32.078Z,5.75
2018-07-27T18:17:59.694Z,8.00
2018-07-27T18:20:27.364Z,6.80
2018-07-27T18:22:55.031Z,7.33
2018-07-27T18:25:22.768Z,6.67
2018-07-27T18:27:50.417Z,6.42
2018-07-27T18:30:18.166Z,6.25
2018-07-27T18:32:45.821Z,6.67
2018-07-27T18:35:13.481Z,7.92
2018-07-27T18:37:41.148Z,7.47
2018-07-27T18:40:09.279Z,6.53
2018-07-27T18:42:36.955Z,6.75
2018-07-27T18:45:05.248Z,6.37
2018-07-27T18:47:33.011Z,6.92
2018-07-27T18:50:00.824Z,9.28
2018-07-27T18:52:28.787Z,7.05
2018-07-27T18:54:56.872Z,7.30
2018-07-27T18:57:24.830Z,7.37
2018-07-27T18:59:52.777Z,8.03
2018-07-27T19:02:20.685Z,6.95
2018-07-27T19:04:48.634Z,7.55
2018-07-27T19:07:16.653Z,8.78
2018-07-27T19:09:44.573Z,7.55
2018-07-27T19:12:12.567Z,7.50
2018-07-27T19:14:40.405Z,8.20
2018-07-27T19:17:08.501Z,8.40
2018-07-27T19:19:36.440Z,7.80
2018-07-27T19:22:04.415Z,7.00
2018-07-27T19:24:32.495Z,7.62
2018-07-27T19:27:00.498Z,6.85
2018-07-27T19:29:28.499Z,9.25
2018-07-27T19:31:56.521Z,7.72
2018-07-27T19:34:24.490Z,9.00
2018-07-27T19:36:52.494Z,12.70
2018-07-27T19:39:20.549Z,7.03
2018-07-27T19:41:48.490Z,7.72
2018-07-27T19:44:16.484Z,7.50
2018-07-27T19:46:44.409Z,9.10
2018-07-27T19:49:12.449Z,8.65
2018-07-27T19:51:40.606Z,8.40
2018-07-27T19:54:08.815Z,9.90
2018-07-27T19:56:36.786Z,7.55
2018-07-27T19:59:04.826Z,8.13
2018-07-27T20:01:32.953Z,7.90
2018-07-27T20:04:01.087Z,8.30
2018-07-27T20:06:29.086Z,8.60
2018-07-27T20:08:57.406Z,8.18
2018-07-27T20:11:25.608Z,8.25
2018-07-27T20:13:53.617Z,8.90
2018-07-27T20:16:21.789Z,9.05
2018-07-27T20:18:49.682Z,7.75
2018-07-27T20:21:17.716Z,8.28
2018-07-27T20:23:45.789Z,8.68
2018-07-27T20:26:13.802Z,10.55
2018-07-27T20:28:41.724Z,8.10
2018-07-27T20:31:09.684Z,8.08
2018-07-27T20:33:37.671Z,10.03
2018-07-27T20:36:05.923Z,9.05
2018-07-27T20:38:33.835Z,8.75
2018-07-27T20:41:01.844Z,11.00
2018-07-27T20:43:29.755Z,9.05
2018-07-27T20:45:57.649Z,9.00
2018-07-27T20:48:25.882Z,8.80
2018-07-27T20:50:53.830Z,10.30
2018-07-27T20:53:21.793Z,11.03
2018-07-27T20:55:49.721Z,8.80
2018-07-27T20:58:17.682Z,8.43
2018-07-27T21:00:45.599Z,9.18
2018-07-27T21:03:13.547Z,9.13
2018-07-27T21:05:41.410Z,9.18
2018-07-27T21:08:09.325Z,8.95
2018-07-27T21:10:37.293Z,8.70
2018-07-27T21:13:05.197Z,9.33
2018-07-27T21:15:33.150Z,8.23
2018-07-27T21:18:01.123Z,8.95
2018-07-27T21:20:29.031Z,8.38
2018-07-27T21:22:56.970Z,9.00
2018-07-27T21:25:24.877Z,8.68
2018-07-27T21:27:52.795Z,8.63
2018-07-27T21:30:20.705Z,9.23
2018-07-27T21:32:48.594Z,8.43
2018-07-27T21:35:16.478Z,8.17
2018-07-27T21:37:44.535Z,8.77
2018-07-27T21:40:12.516Z,8.63
2018-07-27T21:42:40.378Z,9.67
2018-07-27T21:45:08.294Z,8.83
2018-07-27T21:47:36.197Z,8.00
2018-07-27T21:50:04.827Z,7.70
2018-07-27T21:52:32.690Z,8.03
2018-07-27T21:55:00.607Z,7.80
2018-07-27T21:57:28.543Z,7.63
2018-07-27T21:59:56.522Z,7.77
2018-07-27T22:02:24.503Z,9.20
2018-07-27T22:04:52.445Z,7.50
2018-07-27T22:07:20.442Z,7.87
2018-07-27T22:09:48.360Z,6.93
2018-07-27T22:12:16.277Z,7.80
2018-07-27T22:14:44.195Z,8.03
2018-07-27T22:17:12.085Z,7.27
2018-07-27T22:19:39.960Z,7.83
2018-07-27T22:22:07.872Z,7.13
2018-07-27T22:24:35.779Z,8.27
2018-07-27T22:27:03.872Z,6.50
2018-07-27T22:29:32.013Z,6.37
2018-07-27T22:31:59.954Z,7.13
2018-07-27T22:34:27.941Z,6.03
2018-07-27T22:36:55.903Z,6.35
2018-07-27T22:39:23.900Z,6.58
2018-07-27T22:41:51.922Z,7.23
2018-07-27T22:44:19.781Z,6.73
2018-07-27T22:46:47.722Z,6.07
2018-07-27T22:49:15.618Z,6.17
2018-07-27T22:51:43.566Z,6.30
2018-07-27T22:54:11.553Z,6.65
2018-07-27T22:56:39.462Z,6.20
2018-07-27T22:59:07.414Z,6.10
2018-07-27T23:01:35.361Z,6.90
2018-07-27T23:04:03.307Z,5.97
2018-07-27T23:06:31.242Z,7.00
2018-07-27T23:08:59.217Z,6.07
2018-07-27T23:11:27.084Z,6.70
2018-07-27T23:13:55.011Z,5.70
2018-07-27T23:16:22.885Z,7.33
2018-07-27T23:18:50.859Z,6.53
2018-07-27T23:21:18.757Z,7.83
2018-07-27T23:23:46.564Z,5.58
2018-07-27T23:26:14.476Z,6.10
2018-07-27T23:28:42.417Z,6.63
2018-07-27T23:31:10.381Z,6.20
2018-07-27T23:33:38.155Z,6.33
2018-07-27T23:36:06.098Z,5.93
2018-07-27T23:38:34.034Z,6.23
2018-07-27T23:41:01.943Z,6.57
2018-07-27T23:43:29.899Z,8.57
2018-07-27T23:45:57.798Z,6.03
2018-07-27T23:48:25.539Z,7.03
2018-07-27T23:50:53.444Z,6.63
2018-07-27T23:53:21.352Z,6.23
2018-07-27T23:55:49.240Z,6.30
2018-07-27T23:58:17.219Z,6.63
